Altus, Arkansas
Current Conditions -  °F | °C
As of 9:53 AM on Sunday 21 Dec 2014 (Local Time) from KFSM Reporting Station
Overcast Overcast  
Wind Chill: 42°   Ceiling: 4700
Heat Index: 45°   Visibility: 8mi
Dew Point: 39°   Wind: 6mph
Humidity: 80%   Direction: 90°E
Pressure: 30.13"   Gusts: NA
Location:  35.45°N, 93.76°W
Report Text: KFSM 211553Z 09005KT 8SM OVC047 07/04 A3013 RMK AO2 SLP203 T00720039
Loading
Personal Weather Stations






























Interactive Weather Map New forecast layout! Learn more

10-Day Weather Forecast

Advertisements
Track Severe Weather on mobile